Time;durP1;ratioP1;P1;durP2;ratioP2;P2;SDS_P1;SDS_P2;PMS_P1;PMS_P2;Temp;Humidity;BMP_temperature;BMP_pressure;BME280_temperature;BME280_humidity;BME280_pressure;Samples;Min_cycle;Max_cycle;Signal;HPM_P1;HPM_P2
2022/03/03 00:02:03;;;;;;;19.20;15.95;;;;;;;2.26;58.97;102020.44;4853196;29;20125;-82
2022/03/03 00:04:29;;;;;;;21.30;16.48;;;;;;;2.12;58.81;102005.47;4840829;29;20079;-82
2022/03/03 00:06:54;;;;;;;21.02;16.30;;;;;;;2.09;58.40;101995.31;4837786;29;20030;-81
2022/03/03 00:09:20;;;;;;;21.48;16.73;;;;;;;2.15;59.02;102008.81;4840016;29;20134;-81
2022/03/03 00:11:45;;;;;;;20.02;15.85;;;;;;;2.05;58.80;101998.81;4839969;29;20033;-81
2022/03/03 00:14:10;;;;;;;19.92;16.75;;;;;;;2.08;59.19;102014.09;4837706;29;20594;-82
2022/03/03 00:16:36;;;;;;;20.30;16.45;;;;;;;1.94;59.65;102000.81;4839936;29;20038;-81
2022/03/03 00:19:01;;;;;;;20.90;16.80;;;;;;;1.92;60.21;102007.72;4838637;29;20041;-82
2022/03/03 00:21:30;;;;;;;22.13;17.45;;;;;;;1.97;60.24;102015.28;4839022;29;20073;-82
2022/03/03 00:23:55;;;;;;;21.08;17.45;;;;;;;1.97;60.40;102016.09;4839304;29;20409;-82
2022/03/03 00:26:21;;;;;;;22.38;17.38;;;;;;;1.92;60.88;102005.16;4837932;29;20487;-82
2022/03/03 00:28:46;;;;;;;22.65;16.83;;;;;;;1.89;60.93;102007.78;4842705;29;20033;-83
2022/03/03 00:31:11;;;;;;;21.00;17.10;;;;;;;1.73;61.01;101986.06;4839215;29;20517;-82
2022/03/03 00:33:45;;;;;;;22.35;18.00;;;;;;;1.75;61.23;101990.25;4852914;29;20516;-80
2022/03/03 00:36:13;;;;;;;21.05;17.98;;;;;;;1.73;61.41;101986.06;4838767;29;20029;-82
2022/03/03 00:38:38;;;;;;;21.63;17.30;;;;;;;1.67;61.56;101981.09;4837483;29;20375;-81
2022/03/03 00:41:04;;;;;;;20.50;16.90;;;;;;;1.67;61.48;101991.34;4838908;29;20038;-81
2022/03/03 00:43:29;;;;;;;20.60;17.15;;;;;;;1.66;61.77;101972.56;4838576;29;20073;-82
2022/03/03 00:45:57;;;;;;;20.73;17.80;;;;;;;1.72;61.50;101981.81;4838866;29;20034;-82
2022/03/03 00:48:22;;;;;;;21.20;17.92;;;;;;;1.50;63.10;101974.72;4838870;29;20038;-80
2022/03/03 00:50:47;;;;;;;21.77;17.02;;;;;;;1.69;61.94;101987.00;4822344;29;20030;-81
2022/03/03 00:53:13;;;;;;;21.50;17.55;;;;;;;1.59;62.09;101977.00;4839043;29;20026;-82
2022/03/03 00:55:38;;;;;;;21.15;17.52;;;;;;;1.58;62.22;101983.00;4838909;29;20026;-82
2022/03/03 00:58:03;;;;;;;24.58;18.63;;;;;;;1.53;62.27;101974.59;4838870;29;20112;-82
2022/03/03 01:00:31;;;;;;;21.40;18.27;;;;;;;1.49;62.62;101978.16;4837255;29;20029;-82
2022/03/03 01:02:57;;;;;;;21.80;17.85;;;;;;;1.50;62.61;101979.81;4837412;29;20030;-82
2022/03/03 01:05:22;;;;;;;22.00;17.85;;;;;;;1.45;62.77;101975.69;4837219;29;20037;-82
2022/03/03 01:07:48;;;;;;;21.52;18.38;;;;;;;1.53;63.02;101978.88;4838392;29;20390;-82
2022/03/03 01:10:13;;;;;;;22.35;18.30;;;;;;;1.37;62.75;101968.19;4838678;29;20068;-82
2022/03/03 01:13:05;;;;;;;20.88;18.13;;;;;;;1.51;62.82;101966.16;4824759;29;20030;-82
2022/03/03 01:15:31;;;;;;;22.98;18.85;;;;;;;1.44;62.45;101969.75;4819506;29;20034;-81
2022/03/03 01:17:56;;;;;;;22.38;18.02;;;;;;;1.47;62.45;101969.66;4820237;29;20034;-81
2022/03/03 01:20:22;;;;;;;22.83;18.25;;;;;;;1.35;62.18;101964.84;4820272;29;20413;-81
2022/03/03 01:22:47;;;;;;;22.27;17.90;;;;;;;1.45;62.08;101963.75;4820100;29;20041;-81
2022/03/03 01:25:13;;;;;;;21.88;18.33;;;;;;;1.44;62.43;101954.41;4820481;29;20030;-81
2022/03/03 01:27:39;;;;;;;23.35;18.40;;;;;;;1.41;62.22;101962.16;4820559;29;20037;-81
2022/03/03 01:30:06;;;;;;;21.58;17.80;;;;;;;1.46;62.29;101965.44;4840784;29;20049;-81
2022/03/03 01:32:32;;;;;;;21.05;17.58;;;;;;;1.46;62.15;101957.75;4841629;29;20029;-81
2022/03/03 01:35:00;;;;;;;23.38;18.00;;;;;;;1.32;62.17;101954.72;4841873;29;20490;-81
2022/03/03 01:37:28;;;;;;;21.25;17.42;;;;;;;1.31;62.16;101927.47;4825190;29;20037;-81
2022/03/03 01:40:15;;;;;;;;;;;;;;;;;;;;;
2022/03/03 01:42:43;;;;;;;23.05;19.02;;;;;;;1.01;62.88;101893.31;4841445;29;20036;-81
2022/03/03 01:45:09;;;;;;;22.30;17.73;;;;;;;1.08;63.29;101922.09;4841862;29;20041;-82
2022/03/03 01:47:35;;;;;;;23.73;19.20;;;;;;;0.91;63.40;101896.94;4841524;29;20038;-82
2022/03/03 01:50:01;;;;;;;23.73;19.42;;;;;;;1.08;63.88;101919.53;4841310;29;20411;-81
2022/03/03 01:52:30;;;;;;;23.40;19.65;;;;;;;1.00;64.38;101928.22;4841808;29;20026;-82
2022/03/03 01:54:55;;;;;;;;;;;;;;;1.30;62.79;101944.53;4842125;29;20475;-82
2022/03/03 01:57:21;;;;;;;;;;;;;;;1.31;62.73;101940.25;4841747;29;19912;-82
2022/03/03 01:59:47;;;;;;;;;;;;;;;1.30;62.81;101943.69;4841719;29;19923;-81
2022/03/03 02:02:13;;;;;;;;;;;;;;;1.31;62.37;101942.78;4839688;29;19927;-82
2022/03/03 02:04:44;;;;;;;;;;;;;;;1.32;62.12;101941.94;4840296;29;19920;-81
2022/03/03 02:07:11;;;;;;;;;;;;;;;1.32;62.08;101944.50;4842034;29;19916;-81
2022/03/03 02:09:37;;;;;;;;;;;;;;;1.30;62.34;101936.00;4841784;29;19912;-82
2022/03/03 02:12:08;;;;;;;;;;;;;;;1.29;62.33;101934.34;4840960;29;20369;-79
2022/03/03 02:14:49;;;;;;;;;;;;;;;1.28;62.88;101938.63;4841554;29;19921;-81
2022/03/03 02:17:34;;;;;;;;;;;;;;;1.25;63.12;101937.84;4841746;29;20008;-82
2022/03/03 02:20:35;;;;;;;;;;;;;;;1.21;62.81;101928.59;4824884;29;19927;-82
2022/03/03 02:23:06;;;;;;;;;;;;;;;1.15;63.04;101932.16;4841711;29;19939;-81
2022/03/03 02:25:33;;;;;;;;;;;;;;;1.13;63.35;101927.94;4840323;29;19916;-81
2022/03/03 02:27:58;;;;;;;;;;;;;;;1.10;63.36;101920.34;4839676;29;19961;-82
2022/03/03 02:30:26;;;;;;;;;;;;;;;1.08;63.42;101919.53;4840098;29;20019;-81
2022/03/03 02:32:52;;;;;;;;;;;;;;;1.05;63.45;101911.09;4841000;29;19913;-81
2022/03/03 02:35:17;;;;;;;;;;;;;;;1.05;63.76;101911.09;4841044;29;19912;-82
2022/03/03 02:37:46;;;;;;;;;;;;;;;1.03;63.14;101917.97;4841379;29;20277;-82
2022/03/03 02:40:13;;;;;;;;;;;;;;;1.03;63.06;101912.84;4840810;29;19912;-81
2022/03/03 02:42:40;;;;;;;;;;;;;;;1.03;62.70;101910.28;4840541;29;19935;-82
2022/03/03 02:45:10;;;;;;;;;;;;;;;1.05;62.42;101911.09;4839711;29;20266;-82
2022/03/03 02:47:39;;;;;;;;;;;;;;;1.06;62.81;101907.66;4840820;29;19913;-82
2022/03/03 02:50:07;;;;;;;;;;;;;;;1.05;63.25;101905.97;4840450;29;19920;-83
2022/03/03 02:52:32;;;;;;;;;;;;;;;1.04;62.58;101904.28;4824218;29;19991;-81
2022/03/03 02:55:00;;;;;;;;;;;;;;;1.03;62.94;101902.63;4840942;29;19916;-80
2022/03/03 03:00:09;;;;;;;;;;;;;;;1.01;62.61;101906.91;4840918;29;20037;-81
2022/03/03 03:02:34;;;;;;;;;;;;;;;1.00;62.97;101912.91;4824509;29;20352;-82
2022/03/03 03:05:02;;;;;;;;;;;;;;;1.01;62.98;101908.63;4840704;29;20471;-82
2022/03/03 03:07:38;;;;;;;;;;;;;;;1.00;62.84;101906.97;4846326;29;19938;-81
2022/03/03 03:10:04;;;;;;;;;;;;;;;1.01;62.60;101904.34;4857669;29;19916;-82
2022/03/03 03:12:32;;;;;;;;;;;;;;;1.01;63.24;101904.34;4858472;29;20364;-81
2022/03/03 03:14:57;;;;;;;;;;;;;;;0.98;63.78;101899.34;4857629;29;20009;-82
2022/03/03 03:17:25;;;;;;;;;;;;;;;0.93;64.16;101888.41;4858734;29;19919;-81
2022/03/03 03:19:50;;;;;;;;;;;;;;;0.89;63.33;101894.44;4823816;29;19912;-82
2022/03/03 03:22:18;;;;;;;;;;;;;;;0.85;63.39;101890.28;4840706;29;20319;-82
2022/03/03 03:24:44;;;;;;;;;;;;;;;0.83;63.42;101889.47;4842444;29;19944;-82
2022/03/03 03:27:09;;;;;;;;;;;;;;;0.82;63.75;101892.09;4858602;29;19955;-81
2022/03/03 03:29:34;;;;;;;;;;;;;;;0.80;63.31;101894.66;4858706;29;19912;-81
2022/03/03 03:31:59;;;;;;;;;;;;;;;0.77;63.25;101893.03;4854496;29;19971;-82
2022/03/03 03:34:25;;;;;;;;;;;;;;;0.78;62.77;101891.31;4839882;29;19917;-79
2022/03/03 03:36:50;;;;;;;;;;;;;;;0.78;62.99;101886.19;4840292;29;19957;-82
2022/03/03 03:39:15;;;;;;;;;;;;;;;0.77;63.69;101879.41;4840131;29;19961;-82
2022/03/03 03:41:43;;;;;;;;;;;;;;;0.75;63.15;101883.75;4847554;29;19966;-82
2022/03/03 03:44:09;;;;;;;;;;;;;;;0.73;63.15;101875.25;4872308;29;19984;-82
2022/03/03 03:46:35;;;;;;;;;;;;;;;0.72;63.83;101878.69;4858456;29;20373;-81
2022/03/03 03:49:07;;;;;;;;;;;;;;;0.66;63.20;101876.28;4825410;29;19912;-82
2022/03/03 03:51:33;;;;;;;;;;;;;;;0.65;63.55;101879.72;4839709;29;19980;-82
2022/03/03 03:53:58;;;;;;;;;;;;;;;0.63;63.65;101878.88;4823224;29;20354;-82
2022/03/03 03:56:23;;;;;;;;;;;;;;;0.62;64.10;101869.56;4823483;29;19967;-81
2022/03/03 03:58:50;;;;;;;;;;;;;;;0.60;64.16;101866.22;4853909;29;19920;-82
2022/03/03 04:01:15;;;;;;;;;;;;;;;0.57;64.40;101866.28;4823177;29;19965;-81
2022/03/03 04:03:43;;;;;;;;;;;;;;;0.52;63.64;101868.97;4839409;29;19928;-82
2022/03/03 04:06:08;;;;;;;;;;;;;;;0.52;64.19;101868.97;4839818;29;19946;-81
2022/03/03 04:08:34;;;;;;;;;;;;;;;0.51;63.68;101862.16;4839633;29;19916;-81
2022/03/03 04:10:59;;;;;;;;;;;;;;;0.51;63.31;101862.16;4839635;29;19920;-82
2022/03/03 04:13:27;;;;;;;;;;;;;;;0.52;63.60;101859.59;4839622;29;19941;-81
2022/03/03 04:15:52;;;;;;;;;;;;;;;0.54;63.47;101859.53;4853795;29;20011;-82
2022/03/03 04:18:17;;;;;;;;;;;;;;;0.53;63.68;101851.03;4853348;29;20000;-81
2022/03/03 04:20:42;;;;;;;;;;;;;;;0.55;63.32;101847.63;4839704;29;19928;-79
2022/03/03 04:23:08;;;;;;;;;;;;;;;0.55;63.35;101842.50;4839678;29;19916;-78
2022/03/03 04:25:36;;;;;;;;;;;;;;;0.56;63.38;101854.38;4839345;29;19916;-80
2022/03/03 04:28:02;;;;;;;;;;;;;;;0.56;63.91;101849.28;4839528;29;19916;-79
2022/03/03 04:30:28;;;;;;;;;;;;;;;0.52;63.62;101854.47;4839563;29;20160;-79
2022/03/03 04:32:53;;;;;;;;;;;;;;;0.49;64.18;101851.16;4840910;29;20357;-79
2022/03/03 04:35:18;;;;;;;;;;;;;;;0.44;64.18;101841.03;4839325;29;19912;-79
2022/03/03 04:37:43;;;;;;;;;;;;;;;0.40;64.04;101844.56;4839232;29;19912;-79
2022/03/03 04:40:09;;;;;;;;;;;;;;;0.37;63.90;101839.50;4839408;29;19957;-79
2022/03/03 04:42:34;;;;;;;;;;;;;;;0.35;63.87;101833.63;4839272;29;19919;-79
2022/03/03 04:45:00;;;;;;;;;;;;;;;0.33;63.92;101843.00;4839376;29;19916;-79
2022/03/03 04:47:25;;;;;;;;;;;;;;;0.32;64.20;101840.50;4838879;29;19939;-79
2022/03/03 04:49:50;;;;;;;;;;;;;;;0.31;63.65;101842.19;4828915;29;20008;-78
2022/03/03 04:52:15;;;;;;;;;;;;;;;0.29;64.43;101841.41;4840091;29;19916;-79
2022/03/03 04:54:42;;;;;;;;;;;;;;;0.30;63.96;101843.09;4838933;29;19956;-80
2022/03/03 04:57:07;;;;;;;;;;;;;;;0.28;64.07;101847.34;4837927;29;19920;-79
2022/03/03 04:59:32;;;;;;;;;;;;;;;0.23;64.10;101846.63;4839349;29;19916;-79
2022/03/03 05:01:58;;;;;;;;;;;;;;;0.18;64.20;101854.41;4837537;29;20204;-78
2022/03/03 05:04:23;;;;;;;;;;;;;;;0.12;64.24;101848.59;4839979;29;19924;-79
2022/03/03 05:06:49;;;;;;;;;;;;;;;0.10;64.93;101852.88;4825515;29;20318;-78
2022/03/03 05:09:15;;;;;;;;;;;;;;;0.07;65.05;101858.91;4842707;29;20013;-79
2022/03/03 05:11:41;;;;;;;;;;;;;;;0.03;64.72;101864.09;4842707;29;19937;-79
2022/03/03 05:14:06;;;;;;;;;;;;;;;-0.01;64.97;101853.94;4842671;29;19916;-79
2022/03/03 05:16:31;;;;;;;;;;;;;;;-0.04;64.63;101848.91;4839117;29;19957;-79
2022/03/03 05:18:57;;;;;;;;;;;;;;;-0.07;64.74;101837.94;4861146;29;19916;-79
2022/03/03 05:21:22;;;;;;;;;;;;;;;-0.11;64.24;101842.28;4829938;29;19969;-79
2022/03/03 05:23:47;;;;;;;;;;;;;;;-0.12;65.01;101849.94;4825810;29;19917;-79
2022/03/03 05:26:13;;;;;;;;;;;;;;;-0.15;64.87;101845.75;4842646;29;19916;-79
2022/03/03 05:28:38;;;;;;;;;;;;;;;-0.16;65.07;101850.88;4842359;29;20341;-79
2022/03/03 05:31:04;;;;;;;;;;;;;;;-0.18;64.55;101850.06;4842300;29;20349;-79
2022/03/03 05:33:33;;;;;;;;;;;;;;;-0.21;64.62;101848.44;4842240;29;20277;-80
2022/03/03 05:35:59;;;;;;;;;;;;;;;-0.24;64.64;101856.13;4842361;29;19939;-79
2022/03/03 05:38:27;;;;;;;;;;;;;;;-0.28;64.94;101849.44;4842073;29;19955;-79
2022/03/03 05:40:53;;;;;;;;;;;;;;;-0.29;65.19;101842.63;4825407;29;19912;-79
2022/03/03 05:43:19;;;;;;;;;;;;;;;-0.32;65.46;101847.81;4842221;29;19944;-78
2022/03/03 05:45:46;;;;;;;;;;;;;;;-0.30;65.71;101846.06;4825281;29;19912;-79
2022/03/03 05:48:15;;;;;;;;;;;;;;;-0.30;65.10;101851.16;4841781;29;19912;-78
2022/03/03 05:50:40;;;;;;;;;;;;;;;-0.32;65.54;101852.91;4841294;29;20534;-79
2022/03/03 05:53:05;;;;;;;;;;;;;;;-0.34;65.33;101849.56;4825639;29;20003;-79
2022/03/03 05:55:32;;;;;;;;;;;;;;;-0.34;65.67;101849.56;4842357;29;20002;-78
2022/03/03 05:57:59;;;;;;;;;;;;;;;-0.34;65.26;101854.66;4841838;29;19927;-79
2022/03/03 06:00:24;;;;;;;;;;;;;;;-0.36;65.07;101851.28;4855747;29;19923;-79
2022/03/03 06:02:53;;;;;;;;;;;;;;;-0.37;65.82;101854.69;4841546;29;19928;-79
2022/03/03 06:05:20;;;;;;;;;;;;;;;-0.37;65.72;101847.06;4841520;29;19923;-79
2022/03/03 06:07:50;;;;;;;;;;;;;;;-0.38;65.68;101845.38;4841671;29;19918;-79
2022/03/03 06:10:19;;;;;;;;;;;;;;;-0.39;65.75;101844.53;4841556;29;19996;-78
2022/03/03 06:12:47;;;;;;;;;;;;;;;-0.39;65.75;101846.25;4842935;29;20292;-79
2022/03/03 06:15:13;;;;;;;;;;;;;;;-0.38;65.31;101847.94;4827819;29;19926;-78
2022/03/03 06:17:39;;;;;;;;;;;;;;;-0.39;65.59;101852.19;4859740;29;19935;-78
2022/03/03 06:20:04;;;;;;;;;;;;;;;-0.40;65.42;101849.63;4861322;29;20314;-79
2022/03/03 06:22:30;;;;;;;;;;;;;;;-0.43;65.95;101845.47;4832873;29;19916;-79
2022/03/03 06:24:55;;;;;;;;;;;;;;;-0.43;65.80;101847.16;4821284;29;19912;-79
2022/03/03 06:27:20;;;;;;;;;;;;;;;-0.44;66.45;101842.94;4821532;29;19916;-79
2022/03/03 06:29:46;;;;;;;;;;;;;;;-0.44;65.91;101843.78;4839168;29;20375;-79
2022/03/03 06:32:11;;;;;;;;;;;;;;;-0.44;65.87;101842.94;4832971;29;20393;-79
2022/03/03 06:34:37;;;;;;;;;;;;;;;-0.44;65.75;101848.88;4841239;29;19916;-79
2022/03/03 06:37:02;;;;;;;;;;;;;;;-0.46;65.80;101845.53;4843750;29;19912;-79
2022/03/03 06:39:27;;;;;;;;;;;;;;;-0.46;66.39;101850.63;4841849;29;20346;-79
2022/03/03 06:41:52;;;;;;;;;;;;;;;-0.45;66.06;101854.84;4844342;29;19920;-79
2022/03/03 06:44:18;;;;;;;;;;;;;;;-0.46;66.71;101849.75;4842890;29;19916;-79
2022/03/03 06:46:44;;;;;;;;;;;;;;;-0.46;66.54;101854.88;4844286;29;19927;-79
2022/03/03 06:49:09;;;;;;;;;;;;;;;-0.47;65.93;101858.28;4843261;29;19927;-80
2022/03/03 06:51:40;;;;;;;;;;;;;;;-0.49;65.96;101854.94;4844295;29;19953;-79
2022/03/03 06:54:06;;;;;;;;;;;;;;;-0.48;65.89;101857.44;4843484;29;20273;-79
2022/03/03 06:56:33;;;;;;;;;;;;;;;-0.46;65.93;101850.63;4840077;29;19917;-80
2022/03/03 06:59:00;;;;;;;;;;;;;;;-0.43;65.78;101859.91;4840082;29;20018;-78
2022/03/03 07:01:27;;;;;;;;;;;;;;;-0.39;65.74;101866.66;4823840;29;19920;-79
2022/03/03 07:03:52;;;;;;;;;;;;;;;-0.36;66.58;101871.66;4836715;29;20399;-79
2022/03/03 07:06:18;;;;;;;;;;;;;;;-0.36;66.86;101861.47;4837200;29;20011;-79
2022/03/03 07:08:43;;;;;;;;;;;;;;;-0.35;67.07;101863.13;4840553;29;19957;-79
2022/03/03 07:11:10;;;;;;;;;;;;;;;-0.35;67.03;101868.25;4839207;29;20281;-78
2022/03/03 07:13:37;;;;;;;;;;;;;;;-0.35;67.00;101863.97;4853806;29;19915;-79
2022/03/03 07:16:11;;;;;;;;;;;;;;;-0.35;67.25;101868.25;4849409;29;19912;-79
2022/03/03 07:18:40;;;;;;;;;;;;;;;-0.33;67.76;101871.63;4839504;29;19916;-79
2022/03/03 07:21:10;;;;;;;;;;;;;;;-0.33;68.17;101871.63;4840299;29;19919;-79
2022/03/03 07:23:37;;;;;;;;;;;;;;;-0.30;67.49;101867.28;4839996;29;19920;-79
2022/03/03 07:26:03;;;;;;;;;;;;;;;-0.27;67.57;101871.50;4838477;29;19939;-79
2022/03/03 07:28:29;;;;;;;;;;;;;;;-0.23;67.64;101867.16;4854146;29;19916;-78
2022/03/03 07:30:55;;;;;;;;;;;;;;;-0.20;67.51;101867.94;4842376;29;19920;-78
2022/03/03 07:33:38;;;;;;;;;;;;;;;-0.15;67.52;101870.41;4839389;29;19920;-80
2022/03/03 07:36:06;;;;;;;;;;;;;;;-0.10;67.75;101874.53;4838591;29;19959;-79
2022/03/03 07:38:35;;;;;;;;;;;;;;;-0.04;68.13;101881.22;4831666;29;20018;-79
2022/03/03 07:41:01;;;;;;;;;;;;;;;0.01;68.41;101881.13;4821495;29;19990;-79
2022/03/03 07:43:26;;;;;;;;;;;;;;;0.05;68.08;101880.19;4833110;29;20023;-79
2022/03/03 07:45:52;;;;;;;;;;;;;;;0.10;68.39;101881.75;4833649;29;20007;-79
2022/03/03 07:48:21;;;;;;;;;;;;;;;0.17;67.91;101885.03;4840004;29;20238;-79
2022/03/03 07:50:46;;;;;;;;;;;;;;;0.23;67.00;101887.44;4837061;29;20326;-79
2022/03/03 07:53:12;;;;;;;;;;;;;;;0.27;67.77;101894.16;4831525;29;20349;-79
2022/03/03 07:55:47;;;;;;;;;;;;;;;0.34;67.86;101893.16;4830791;29;20014;-79
2022/03/03 07:58:14;;;;;;;;;;;;;;;0.38;67.71;101887.13;4850892;29;19923;-79
2022/03/03 08:00:45;;;;;;;;;;;;;;;0.43;67.73;101885.31;4831148;29;19923;-79
2022/03/03 08:03:13;;;;;;;;;;;;;;;0.49;67.35;101890.28;4834558;29;19966;-79
2022/03/03 08:05:39;;;;;;;;;;;;;;;0.57;67.87;101886.69;4821591;29;19912;-79
2022/03/03 08:08:08;;;;;;;;;;;;;;;0.63;67.77;101894.22;4821586;29;19924;-79
2022/03/03 08:10:34;;;;;;;;;;;;;;;0.68;67.82;101889.84;4820756;29;19921;-80
2022/03/03 08:12:59;;;;;;;;;;;;;;;0.76;67.99;101893.06;4854405;29;20446;-79
2022/03/03 08:15:25;;;;;;;;;;;;;;;0.82;67.74;101892.91;4853010;29;19920;-80
2022/03/03 08:17:51;;;;;;;;;;;;;;;0.89;68.16;101889.34;4853404;29;20431;-79
2022/03/03 08:20:17;;;;;;;;;;;;;;;0.98;68.11;101898.50;4839230;29;19939;-80
2022/03/03 08:22:43;;;;;;;;;;;;;;;1.05;68.24;101895.75;4839220;29;19917;-79
2022/03/03 08:25:10;;;;;;;;;;;;;;;1.13;67.97;101892.16;4839213;29;19928;-79
2022/03/03 08:27:39;;;;;;;;;;;;;;;1.20;68.49;101898.78;4854344;29;19999;-78
2022/03/03 08:30:05;;;;;;;;;;;;;;;1.28;67.88;101896.88;4841674;29;19970;-79
2022/03/03 08:32:36;;;;;;;;;;;;;;;1.33;67.47;101889.94;4839175;29;20006;-79
2022/03/03 08:35:18;;;;;;;;;;;;;;;1.39;67.62;101889.78;4839872;29;20387;-78
2022/03/03 08:37:47;;;;;;;;;;;;;;;1.48;67.66;101892.06;4804193;29;19939;-78
2022/03/03 08:40:15;;;;;;;;;;;;;;;1.56;68.22;101895.28;4839639;29;19916;-78
2022/03/03 08:42:43;;;;;;;;;;;;;;;1.66;67.45;101895.84;4836870;29;19950;-79
2022/03/03 08:45:10;;;;;;;;;;;;;;;1.74;67.55;101895.66;4827545;29;19962;-78
2022/03/03 08:47:35;;;;;;;;;;;;;;;1.82;67.17;101893.72;4840670;29;20285;-79
2022/03/03 08:50:04;;;;;;;;;;;;;;;1.91;67.02;101895.19;4842168;29;19917;-78
2022/03/03 08:52:32;;;;;;;;;;;;;;;2.00;66.90;101893.19;4822714;29;19916;-79
2022/03/03 08:54:57;;;;;;;;;;;;;;;2.10;67.53;101888.66;4836515;29;19916;-79
2022/03/03 08:57:22;;;;;;;;;;;;;;;2.19;67.61;101885.00;4836787;29;19919;-79
2022/03/03 08:59:47;;;;;;;;;;;;;;;2.30;67.46;101890.66;4842875;29;19915;-79
2022/03/03 09:02:16;;;;;;;;;;;;;;;2.39;67.40;101880.09;4855522;29;20433;-79
2022/03/03 09:04:42;;;;;;;;;;;;;;;2.49;67.10;101880.66;4856656;29;19923;-79
2022/03/03 09:07:08;;;;;;;;;;;;;;;2.59;66.56;101877.78;4840218;29;20378;-79
2022/03/03 09:09:34;;;;;;;;;;;;;;;2.68;66.09;101884.31;4838351;29;19932;-79
2022/03/03 09:12:00;;;;;;;;;;;;;;;2.78;65.57;101880.59;4847851;29;19923;-79
2022/03/03 09:14:25;;;;;;;;;;;;;;;2.89;65.95;101878.50;4855392;29;20281;-79
2022/03/03 09:16:50;;;;;;;;;;;;;;;2.98;65.31;101872.22;4838312;29;19963;-80
2022/03/03 09:19:16;;;;;;;;;;;;;;;3.08;65.81;101873.59;4846635;29;20362;-79
2022/03/03 09:21:41;;;;;;;;;;;;;;;3.19;65.28;101873.25;4838573;29;19971;-79
2022/03/03 09:24:08;;;;;;;;;;;;;;;3.30;65.18;101876.28;4852602;29;20392;-79
2022/03/03 09:26:34;;;;;;;;;;;;;;;3.40;64.86;101874.25;4838311;29;20311;-79
2022/03/03 09:28:59;;;;;;;;;;;;;;;3.51;65.17;101864.47;4838749;29;19939;-79
2022/03/03 09:31:24;;;;;;;;;;;;;;;3.61;64.70;101865.81;4847511;29;20275;-79
2022/03/03 09:33:50;;;;;;;;;;;;;;;3.71;65.14;101862.00;4843129;29;19924;-79
2022/03/03 09:36:18;;;;;;;;;;;;;;;3.85;64.99;101868.38;4838552;29;19913;-79
2022/03/03 09:38:43;;;;;;;;;;;;;;;3.96;65.08;101866.25;4838856;29;19952;-79
2022/03/03 09:41:08;;;;;;;;;;;;;;;4.06;64.40;101877.81;4838708;29;19975;-79
2022/03/03 09:43:33;;;;;;;;;;;;;;;4.16;64.22;101874.03;4836623;29;19931;-79
2022/03/03 09:45:58;;;;;;;;;;;;;;;4.26;64.20;101865.06;4838935;29;19920;-79
2022/03/03 09:48:24;;;;;;;;;;;;;;;4.38;64.25;101868.06;4838560;29;19919;-79
2022/03/03 09:50:49;;;;;;;;;;;;;;;4.47;64.12;101862.56;4839246;29;19916;-79
2022/03/03 09:53:16;;;;;;;;;;;;;;;4.60;64.06;101870.63;4842157;29;19916;-79
2022/03/03 09:55:41;;;;;;;;;;;;;;;4.72;62.81;101868.41;4841726;29;19923;-79
2022/03/03 09:58:07;;;;;;;;;;;;;;;4.84;63.18;101863.66;4825492;29;20268;-79
2022/03/03 10:00:36;;;;;;;;;;;;;;;4.96;63.05;101860.59;4841799;29;19920;-79
2022/03/03 10:03:09;;;;;;;;;;;;;;;5.09;62.51;101859.16;4841203;29;20379;-79
2022/03/03 10:05:48;;;;;;;;;;;;;;;5.24;61.25;101860.25;4841450;29;20365;-79
2022/03/03 10:08:17;;;;;;;;;;;;;;;5.39;59.59;101856.19;4853535;29;20264;-79
2022/03/03 10:10:47;;;;;;;;;;;;;;;5.51;59.80;101850.53;4859444;29;19912;-79
2022/03/03 10:13:16;;;;;;;;;;;;;;;5.63;59.00;101847.41;4858347;29;20608;-79
2022/03/03 10:15:42;;;;;;;;;;;;;;;5.74;58.88;101844.34;4852658;29;19916;-79
2022/03/03 10:18:10;;;;;;;;;;;;;;;5.88;58.20;101836.00;4855541;29;20301;-79
2022/03/03 10:20:37;;;;;;;;;;;;;;;6.00;56.36;101845.75;4841393;29;19963;-79
2022/03/03 10:23:05;;;;;;;;;;;;;;;6.14;56.76;101848.53;4841169;29;19916;-79
2022/03/03 10:25:32;;;;;;;;;;;;;;;6.23;54.80;101848.09;4845543;29;19924;-79
2022/03/03 10:28:05;;;;;;;;;;;;;;;6.28;54.53;101853.88;4857766;29;19924;-79
2022/03/03 10:30:45;;;;;;;;;;;;;;;6.35;53.87;101851.84;4850193;29;19927;-79
2022/03/03 10:33:15;;;;;;;;;;;;;;;6.41;51.92;101861.03;4824414;29;20365;-79
2022/03/03 10:35:40;;;;;;;;;;;;;;;6.46;50.52;101849.59;4842131;29;19920;-79
2022/03/03 10:38:05;;;;;;;;;;;;;;;6.50;49.73;101860.59;4855901;29;20396;-79
2022/03/03 10:40:31;;;;;;;;;;;;;;;6.56;52.96;101850.81;4840701;29;19921;-79
2022/03/03 10:42:56;;;;;;;;;;;;;;;6.64;53.46;101851.25;4854760;29;19953;-79
2022/03/03 10:45:21;;;;;;;;;;;;;;;6.75;51.58;101855.91;4857950;29;19924;-79
2022/03/03 10:47:58;;;;;;;;;;;;;;;6.81;50.47;101854.78;4841432;29;20357;-79
2022/03/03 10:50:23;;;;;;;;;;;;;;;6.88;52.32;101851.84;4840964;29;19912;-79
2022/03/03 10:52:48;;;;;;;;;;;;;;;6.99;53.28;101847.84;4844108;29;20434;-79
2022/03/03 10:55:15;;;;;;;;;;;;;;;7.06;50.38;101846.66;4849298;29;19951;-79
2022/03/03 10:57:45;;;;;;;;;;;;;;;7.11;50.72;101847.22;4859110;29;20006;-79
2022/03/03 11:00:10;;;;;;;;;;;;;;;7.20;52.44;101851.94;4859109;29;20330;-79
2022/03/03 11:02:36;;;;;;;;;;;;;;;7.28;50.41;101843.81;4858842;29;20404;-79
2022/03/03 11:05:02;;;;;;;;;;;;;;;7.34;52.34;101834.03;4843905;29;19976;-79
2022/03/03 11:07:27;;;;;;;;;;;;;;;7.40;51.83;101833.69;4840296;29;19959;-79
2022/03/03 11:09:53;;;;;;;;;;;;;;;7.50;52.27;101834.03;4840247;29;19913;-79
2022/03/03 11:12:19;;;;;;;;;;;;;;;7.57;49.81;101837.13;4840454;29;19916;-79
2022/03/03 11:14:44;;;;;;;;;;;;;;;7.60;49.94;101840.38;4840830;29;19912;-81
2022/03/03 11:17:10;;;;;;;;;;;;;;;7.64;50.58;101835.91;4840294;29;20434;-83
2022/03/03 11:19:35;;;;;;;;;;;;;;;7.69;50.85;101833.91;4840261;29;19917;-83
2022/03/03 11:22:00;;;;;;;;;;;;;;;7.75;51.81;101838.75;4840623;29;20026;-83
2022/03/03 11:24:26;;;;;;;;;;;;;;;7.82;50.60;101824.59;4840325;29;19967;-83
2022/03/03 11:26:51;;;;;;;;;;;;;;;7.85;51.78;101829.56;4840081;29;19913;-83
2022/03/03 11:29:17;;;;;;;;;;;;;;;7.91;51.67;101826.69;4840880;29;20296;-81
2022/03/03 11:31:44;;;;;;;;;;;;;;;7.96;51.18;101821.25;4852794;29;19994;-83
2022/03/03 11:34:30;;;;;;;;;;;;;;;7.99;48.32;101824.50;4840589;29;20333;-83
2022/03/03 11:37:08;;;;;;;;;;;;;;;8.07;51.04;101812.91;4854781;29;20365;-83
2022/03/03 11:39:34;;;;;;;;;;;;;;;8.16;50.15;101818.41;4843269;29;20036;-81
2022/03/03 11:42:15;;;;;;;;;;;;;;;8.25;50.91;101811.88;4858207;29;19990;-83
2022/03/03 11:44:40;;;;;;;;;;;;;;;8.34;49.33;101811.38;4855149;29;19927;-82
2022/03/03 11:47:18;;;;;;;;;;;;;;;8.42;49.70;101809.19;4854095;29;20935;-83
2022/03/03 11:49:59;;;;;;;;;;;;;;;8.49;50.84;101804.53;4853787;29;19916;-82
2022/03/03 11:52:24;;;;;;;;;;;;;;;8.52;48.70;101800.00;4839817;29;20444;-83
2022/03/03 11:54:54;;;;;;;;;;;;;;;8.56;49.39;101794.69;4839857;29;20014;-83
2022/03/03 11:57:23;;;;;;;;;;;;;;;8.58;50.10;101788.47;4839549;29;19918;-80
2022/03/03 11:59:49;;;;;;;;;;;;;;;8.66;50.23;101807.00;4839854;29;19916;-83
2022/03/03 12:02:18;;;;;;;;;;;;;;;8.72;49.27;101795.47;4853640;29;19924;-83
2022/03/03 12:04:44;;;;;;;;;;;;;;;8.78;50.21;101800.28;4839703;29;19924;-83
2022/03/03 12:07:28;;;;;;;;;;;;;;;8.84;48.50;101799.91;4839542;29;19917;-83
2022/03/03 12:09:54;;;;;;;;;;;;;;;8.90;48.27;101799.56;4838276;29;20349;-83
2022/03/03 12:12:20;;;;;;;;;;;;;;;8.92;48.37;101796.88;4839648;29;19918;-83
2022/03/03 12:14:58;;;;;;;;;;;;;;;8.91;47.81;101798.63;4838873;29;20008;-82
2022/03/03 12:17:36;;;;;;;;;;;;;;;8.91;48.25;101793.44;4839650;29;19913;-84
2022/03/03 12:20:20;;;;;;;;;;;;;;;8.90;47.93;101796.13;4839847;29;19920;-83
2022/03/03 12:23:05;;;;;;;;;;;;;;;8.92;48.55;101794.28;4839297;29;19920;-83
2022/03/03 12:25:50;;;;;;;;;;;;;;;8.98;49.16;101786.97;4839217;29;19920;-83
2022/03/03 12:28:28;;;;;;;;;;;;;;;9.04;47.45;101771.09;4838492;29;19916;-82
2022/03/03 12:30:54;;;;;;;;;;;;;;;9.11;48.65;101781.06;4842049;29;19964;-83
2022/03/03 12:33:19;;;;;;;;;;;;;;;9.17;48.97;101775.53;4842987;29;20530;-83
2022/03/03 12:35:46;;;;;;;;;;;;;;;9.25;46.57;101788.84;4840316;29;20403;-83